aviador You're here:

KMAI Decoded Metar

MARIANNA in FL, USA
Report Time2017-11-24 19:53:00
UTC Time2017-11-24 20:04:37
Flight Rules vfr VFR
WindCalm
Visibility9999 m
Phenomena:N/A
Clouds:N/A
Expected CloudBase > 6,000 ft AGL from Temp-Dew spread
CeilingNone
Temp21°C (ISA +6)
Dew Point06°C (38% RH)
AAT20.1°C
QNH1014 hPa
Density Alt925 ft
Elevation105 ft
Report Wrong Elevation
Raw Report
METAR KMAI 241953Z AUTO 00000KT 10SM CLR 21/06 A2993 RMK AO2 SLP133
T02060061 $=

Extra information for KMAI:More info

Metar Taf Metar & Taf Last 4 Metars F.Rules Stats Wind Profile Meteogram Temp Stats Airport Information Weather charts Add Link Nearby VenuesMetar ALERT Operation Metar Decoded Social comments

AIRNAV info for KMAI